createdAt,value
2023-05-19T00:00:34.692Z,78.2195
2023-05-19T00:01:35.777Z,78.6721
2023-05-19T00:02:37.289Z,78.7895
2023-05-19T00:03:38.728Z,78.6742
2023-05-19T00:04:40.141Z,78.7418
2023-05-19T00:05:41.514Z,78.9109
2023-05-19T00:06:42.959Z,78.0994
2023-05-19T00:07:44.355Z,75.9649
2023-05-19T00:08:45.886Z,77.4238
2023-05-19T00:09:47.269Z,78.6892
2023-05-19T00:10:48.643Z,78.6450
2023-05-19T00:11:50.032Z,78.6856
2023-05-19T00:12:53.725Z,78.5803
2023-05-19T00:13:52.906Z,78.5559
2023-05-19T00:14:54.417Z,78.6410
2023-05-19T00:15:55.773Z,79.0304
2023-05-19T00:16:57.286Z,76.8976
2023-05-19T00:17:58.724Z,78.4168
2023-05-19T00:19:00.164Z,78.9241
2023-05-19T00:20:01.416Z,78.7457
2023-05-19T00:21:02.890Z,78.9423
2023-05-19T00:22:04.281Z,78.8985
2023-05-19T00:23:05.738Z,78.9000
2023-05-19T00:24:07.219Z,78.7821
2023-05-19T00:25:08.644Z,77.9944
2023-05-19T00:26:09.984Z,77.5682
2023-05-19T00:27:11.396Z,78.7107
2023-05-19T00:28:12.741Z,78.9163
2023-05-19T00:29:14.307Z,79.0742
2023-05-19T00:30:15.680Z,78.8474
2023-05-19T00:31:17.215Z,78.9350
2023-05-19T00:32:18.650Z,79.0896
2023-05-19T00:33:19.961Z,79.3957
2023-05-19T00:34:21.426Z,77.8009
2023-05-19T00:35:22.856Z,77.5098
2023-05-19T00:36:24.146Z,78.8329
2023-05-19T00:37:25.673Z,78.9654
2023-05-19T00:38:27.170Z,79.1534
2023-05-19T00:39:28.512Z,78.9923
2023-05-19T00:40:30.106Z,78.8240
2023-05-19T00:41:31.420Z,78.6760
2023-05-19T00:42:32.792Z,79.1868
2023-05-19T00:43:34.270Z,79.1653
2023-05-19T00:44:35.604Z,79.1430
2023-05-19T00:45:37.151Z,79.1255
2023-05-19T00:46:38.574Z,78.9451
2023-05-19T00:47:39.968Z,78.7523
2023-05-19T00:48:41.342Z,78.9026
2023-05-19T00:49:42.796Z,79.1635
2023-05-19T00:50:44.220Z,78.9217
2023-05-19T00:51:45.586Z,77.7859
2023-05-19T00:52:46.988Z,78.9420
2023-05-19T00:53:48.587Z,79.1794
2023-05-19T00:54:49.886Z,79.2613
2023-05-19T00:55:51.389Z,79.0464
2023-05-19T00:56:52.796Z,78.7970
2023-05-19T00:57:54.201Z,78.6593
2023-05-19T00:58:55.654Z,78.7723
2023-05-19T00:59:57.064Z,78.9154
2023-05-19T01:00:58.601Z,77.8350
2023-05-19T01:01:59.924Z,78.8446
2023-05-19T01:03:01.371Z,79.1533
2023-05-19T01:04:02.868Z,78.9837
2023-05-19T01:05:04.174Z,79.1602
2023-05-19T01:06:05.542Z,79.1368
2023-05-19T01:07:07.013Z,78.9783
2023-05-19T01:08:08.468Z,78.9258
2023-05-19T01:09:09.847Z,78.9621
2023-05-19T01:10:11.250Z,78.8452
2023-05-19T01:11:12.723Z,78.4573
2023-05-19T01:12:14.122Z,78.9744
2023-05-19T01:13:15.621Z,79.0694
2023-05-19T01:14:16.880Z,78.9746
2023-05-19T01:15:18.419Z,78.8112
2023-05-19T01:16:19.888Z,78.8373
2023-05-19T01:17:21.250Z,78.7825
2023-05-19T01:18:22.643Z,78.8070
2023-05-19T01:19:24.137Z,79.2988
2023-05-19T01:20:25.485Z,79.3776
2023-05-19T01:21:27.028Z,79.1599
2023-05-19T01:22:28.357Z,79.0516
2023-05-19T01:23:29.793Z,78.8521
2023-05-19T01:24:31.195Z,78.8504
2023-05-19T01:25:32.656Z,78.8638
2023-05-19T01:26:34.059Z,79.0041
2023-05-19T01:27:50.302Z,79.0348
2023-05-19T01:28:36.895Z,78.9897
2023-05-19T01:29:38.291Z,78.7841
2023-05-19T01:30:39.810Z,78.8876
2023-05-19T01:31:41.310Z,78.8616
2023-05-19T01:32:42.651Z,79.0648
2023-05-19T01:33:44.020Z,78.9770
2023-05-19T01:34:45.480Z,79.0649
2023-05-19T01:35:46.814Z,79.0087
2023-05-19T01:36:48.298Z,79.1086
2023-05-19T01:37:49.690Z,79.4686
2023-05-19T01:38:51.195Z,79.5145
2023-05-19T01:39:52.605Z,79.3074
2023-05-19T01:40:54.043Z,79.2638
2023-05-19T01:41:55.514Z,79.5157
2023-05-19T01:42:57.866Z,79.2411
2023-05-19T01:43:58.268Z,79.0463
2023-05-19T01:44:59.643Z,79.1160
2023-05-19T01:46:01.149Z,79.3261
2023-05-19T01:47:02.593Z,79.4357
2023-05-19T01:48:04.007Z,79.5609
2023-05-19T01:49:05.439Z,79.3753
2023-05-19T01:50:06.809Z,79.0877
2023-05-19T01:51:08.288Z,79.2750
2023-05-19T01:52:09.733Z,79.1544
2023-05-19T01:53:11.150Z,79.0271
2023-05-19T01:54:12.559Z,79.0897
2023-05-19T01:55:14.061Z,79.2269
2023-05-19T01:56:15.378Z,78.9915
2023-05-19T01:57:16.849Z,78.9474
2023-05-19T01:58:18.203Z,78.8824
2023-05-19T01:59:19.643Z,79.0511
2023-05-19T02:00:21.406Z,79.1648
2023-05-19T02:01:22.470Z,79.1725
2023-05-19T02:02:24.014Z,79.1000
2023-05-19T02:03:25.397Z,79.2558
2023-05-19T02:04:26.917Z,79.3773
2023-05-19T02:05:28.209Z,79.5713
2023-05-19T02:06:29.623Z,79.5317
2023-05-19T02:07:30.983Z,79.1318
2023-05-19T02:08:32.474Z,79.2367
2023-05-19T02:09:33.918Z,79.4006
2023-05-19T02:10:35.338Z,79.2655
2023-05-19T02:11:36.721Z,79.0905
2023-05-19T02:12:38.266Z,79.1240
2023-05-19T02:13:39.564Z,79.3948
2023-05-19T02:14:41.045Z,79.2917
2023-05-19T02:15:42.539Z,79.1949
2023-05-19T02:16:43.821Z,79.0368
2023-05-19T02:17:45.366Z,78.9280
2023-05-19T02:18:46.714Z,79.1065
2023-05-19T02:19:48.171Z,79.0640
2023-05-19T02:20:49.548Z,79.0611
2023-05-19T02:21:50.990Z,78.9329
2023-05-19T02:22:52.375Z,79.1563
2023-05-19T02:23:53.869Z,79.2117
2023-05-19T02:24:55.288Z,79.0376
2023-05-19T02:25:56.800Z,79.0450
2023-05-19T02:26:58.083Z,79.1696
2023-05-19T02:27:59.679Z,78.9234
2023-05-19T02:29:01.097Z,78.9963
2023-05-19T02:30:02.530Z,79.1391
2023-05-19T02:31:03.921Z,79.2211
2023-05-19T02:32:05.494Z,79.4017
2023-05-19T02:33:06.856Z,79.4734
2023-05-19T02:34:08.207Z,79.4310
2023-05-19T02:35:09.649Z,79.3425
2023-05-19T02:36:11.009Z,79.1743
2023-05-19T02:37:12.456Z,79.3874
2023-05-19T02:38:13.911Z,79.4858
2023-05-19T02:39:15.260Z,78.9422
2023-05-19T02:40:16.640Z,79.0133
2023-05-19T02:41:18.107Z,79.1140
2023-05-19T02:42:19.486Z,79.3387
2023-05-19T02:43:21.033Z,79.4681
2023-05-19T02:44:22.468Z,79.2301
2023-05-19T02:45:23.805Z,79.1526
2023-05-19T02:46:25.309Z,79.4219
2023-05-19T02:47:26.712Z,79.4031
2023-05-19T02:48:28.281Z,79.3032
2023-05-19T02:49:29.559Z,79.2999
2023-05-19T02:50:31.215Z,79.4307
2023-05-19T02:51:32.456Z,79.6612
2023-05-19T02:52:33.910Z,79.6693
2023-05-19T02:53:35.286Z,79.4478
2023-05-19T02:54:36.685Z,79.5141
2023-05-19T02:55:38.112Z,79.3633
2023-05-19T02:56:39.578Z,79.3749
2023-05-19T02:57:41.017Z,79.0662
2023-05-19T02:58:42.480Z,78.9818
2023-05-19T02:59:43.868Z,79.0037
2023-05-19T03:00:45.313Z,79.1752
2023-05-19T03:01:46.722Z,79.1836
2023-05-19T03:02:48.216Z,79.1235
2023-05-19T03:03:49.676Z,79.0065
2023-05-19T03:04:51.010Z,79.2853
2023-05-19T03:05:52.471Z,79.2326
2023-05-19T03:06:53.826Z,79.1245
2023-05-19T03:07:55.322Z,79.0633
2023-05-19T03:08:57.266Z,79.2073
2023-05-19T03:09:58.141Z,79.2763
2023-05-19T03:10:59.553Z,79.1580
2023-05-19T03:12:00.993Z,79.0980
2023-05-19T03:13:02.404Z,79.1579
2023-05-19T03:14:03.874Z,79.0843
2023-05-19T03:15:05.252Z,79.0823
2023-05-19T03:16:06.782Z,78.9665
2023-05-19T03:17:08.328Z,78.9525
2023-05-19T03:18:09.629Z,78.9501
2023-05-19T03:19:11.023Z,79.0810
2023-05-19T03:20:12.534Z,79.0254
2023-05-19T03:21:13.792Z,79.0563
2023-05-19T03:22:15.236Z,79.2728
2023-05-19T03:23:16.629Z,79.0888
2023-05-19T03:24:18.250Z,78.9600
2023-05-19T03:25:19.443Z,79.0374
2023-05-19T03:26:20.953Z,78.8841
2023-05-19T03:27:22.379Z,79.0734
2023-05-19T03:28:23.794Z,79.2397
2023-05-19T03:29:25.262Z,79.4968
2023-05-19T03:30:26.695Z,79.1857
2023-05-19T03:31:28.066Z,79.1647
2023-05-19T03:32:29.590Z,79.1121
2023-05-19T03:33:31.084Z,79.1459
2023-05-19T03:34:32.377Z,79.1523
2023-05-19T03:35:33.764Z,79.0448
2023-05-19T03:36:35.192Z,79.0867
2023-05-19T03:37:36.612Z,79.1969
2023-05-19T03:38:37.969Z,79.2540
2023-05-19T03:39:40.385Z,79.2485
2023-05-19T03:40:40.951Z,79.1547
2023-05-19T03:41:42.268Z,79.1895
2023-05-19T03:42:43.751Z,79.1669
2023-05-19T03:43:45.140Z,79.0470
2023-05-19T03:44:46.610Z,78.9985
2023-05-19T03:45:48.053Z,78.9864
2023-05-19T03:46:49.488Z,79.1326
2023-05-19T03:47:50.902Z,78.9764
2023-05-19T03:48:52.381Z,79.1268
2023-05-19T03:49:53.736Z,79.3306
2023-05-19T03:50:55.270Z,79.0458
2023-05-19T03:51:56.537Z,79.0142
2023-05-19T03:52:58.100Z,78.9532
2023-05-19T03:53:59.403Z,78.8693
2023-05-19T03:55:00.901Z,78.3337
2023-05-19T03:56:02.283Z,77.7405
2023-05-19T03:57:03.722Z,78.5398
2023-05-19T03:58:05.037Z,78.6472
2023-05-19T03:59:06.542Z,78.4389
2023-05-19T04:00:08.007Z,78.3677
2023-05-19T04:01:09.433Z,78.5433
2023-05-19T04:02:10.929Z,78.6176
2023-05-19T04:03:12.270Z,78.5906
2023-05-19T04:04:13.726Z,78.6103
2023-05-19T04:05:15.141Z,78.5387
2023-05-19T04:06:16.404Z,78.5638
2023-05-19T04:07:17.930Z,78.6765
2023-05-19T04:08:19.334Z,78.7033
2023-05-19T04:09:20.718Z,78.6479
2023-05-19T04:10:22.305Z,78.5749
2023-05-19T04:11:23.572Z,78.5760
2023-05-19T04:12:25.079Z,78.5015
2023-05-19T04:13:26.395Z,78.4472
2023-05-19T04:14:27.896Z,78.5853
2023-05-19T04:15:29.366Z,78.6677
2023-05-19T04:16:30.929Z,78.6837
2023-05-19T04:17:32.223Z,78.6636
2023-05-19T04:18:33.593Z,78.7558
2023-05-19T04:19:34.981Z,78.6295
2023-05-19T04:20:36.455Z,78.7256
2023-05-19T04:21:37.820Z,78.6518
2023-05-19T04:22:39.270Z,78.7996
2023-05-19T04:23:40.777Z,78.4130
2023-05-19T04:24:42.166Z,78.6267
2023-05-19T04:25:43.534Z,78.7370
2023-05-19T04:26:45.014Z,78.6953
2023-05-19T04:27:46.453Z,78.8605
2023-05-19T04:28:47.860Z,78.9906
2023-05-19T04:29:49.208Z,78.8309
2023-05-19T04:30:50.742Z,78.7681
2023-05-19T04:31:52.062Z,78.5254
2023-05-19T04:32:53.572Z,78.5843
2023-05-19T04:33:55.010Z,78.7288
2023-05-19T04:34:56.365Z,78.5892
2023-05-19T04:35:57.836Z,78.5602
2023-05-19T04:36:59.284Z,78.8040
2023-05-19T04:38:00.577Z,78.8109
2023-05-19T04:39:02.115Z,78.8282
2023-05-19T04:40:03.568Z,78.7873
2023-05-19T04:41:04.990Z,78.6523
2023-05-19T04:42:06.299Z,78.8173
2023-05-19T04:43:07.887Z,78.6613
2023-05-19T04:44:09.337Z,78.7129
2023-05-19T04:45:10.516Z,78.6319
2023-05-19T04:46:13.414Z,78.5923
2023-05-19T04:47:13.593Z,78.6608
2023-05-19T04:48:14.984Z,78.6349
2023-05-19T04:49:16.293Z,78.7810
2023-05-19T04:50:17.750Z,78.7927
2023-05-19T04:51:19.177Z,78.8173
2023-05-19T04:52:20.624Z,78.7247
2023-05-19T04:53:22.018Z,78.7479
2023-05-19T04:54:23.348Z,78.6012
2023-05-19T04:55:24.800Z,78.4181
2023-05-19T04:56:26.331Z,78.4337
2023-05-19T04:57:27.708Z,78.6268
2023-05-19T04:58:29.118Z,78.6334
2023-05-19T04:59:30.558Z,78.5471
2023-05-19T05:00:32.111Z,78.4701
2023-05-19T05:01:33.362Z,78.4558
2023-05-19T05:02:34.930Z,78.4488
2023-05-19T05:03:36.211Z,78.4163
2023-05-19T05:04:37.717Z,78.4092
2023-05-19T05:05:39.025Z,78.2878
2023-05-19T05:06:40.546Z,78.1610
2023-05-19T05:07:41.937Z,78.2392
2023-05-19T05:08:43.313Z,78.2682
2023-05-19T05:09:44.796Z,78.0391
2023-05-19T05:10:46.175Z,77.8901
2023-05-19T05:11:47.590Z,77.8282
2023-05-19T05:12:49.005Z,77.7921
2023-05-19T05:13:50.404Z,77.9728
2023-05-19T05:14:51.796Z,77.9576
2023-05-19T05:15:53.166Z,78.1966
2023-05-19T05:16:54.761Z,78.0014
2023-05-19T05:17:56.207Z,77.9449
2023-05-19T05:18:57.640Z,78.0284
2023-05-19T05:19:59.016Z,78.1817
2023-05-19T05:21:00.347Z,77.9420
2023-05-19T05:22:01.812Z,78.0052
2023-05-19T05:23:03.225Z,77.8616
2023-05-19T05:24:04.657Z,77.7167
2023-05-19T05:25:06.010Z,77.6697
2023-05-19T05:26:07.537Z,77.4972
2023-05-19T05:27:08.898Z,77.4820
2023-05-19T05:28:10.380Z,77.6407
2023-05-19T05:29:11.747Z,77.4968
2023-05-19T05:30:13.242Z,77.2773
2023-05-19T05:31:14.565Z,77.0091
2023-05-19T05:32:16.104Z,77.1287
2023-05-19T05:33:17.626Z,77.2642
2023-05-19T05:34:18.895Z,77.3053
2023-05-19T05:35:20.397Z,77.2607
2023-05-19T05:36:21.740Z,77.2403
2023-05-19T05:37:23.174Z,77.3459
2023-05-19T05:38:24.615Z,77.1597
2023-05-19T05:39:25.995Z,76.8199
2023-05-19T05:40:27.428Z,76.9294
2023-05-19T05:41:28.801Z,77.1380
2023-05-19T05:42:30.388Z,77.1636
2023-05-19T05:43:31.737Z,77.1290
2023-05-19T05:44:33.128Z,77.1592
2023-05-19T05:45:34.711Z,76.9370
2023-05-19T05:46:35.865Z,76.6658
2023-05-19T05:47:37.389Z,76.5516
2023-05-19T05:48:38.890Z,76.7746
2023-05-19T05:49:40.154Z,76.4783
2023-05-19T05:50:41.613Z,76.4511
2023-05-19T05:51:48.456Z,76.3796
2023-05-19T05:52:44.530Z,76.4109
2023-05-19T05:53:45.919Z,76.4498
2023-05-19T05:54:47.395Z,76.3925
2023-05-19T05:55:48.771Z,76.5021
2023-05-19T05:56:50.226Z,76.1719
2023-05-19T05:57:51.593Z,76.0371
2023-05-19T05:58:53.036Z,76.1647
2023-05-19T05:59:54.445Z,76.1063
2023-05-19T06:00:55.832Z,76.1106
2023-05-19T06:01:57.248Z,75.9442
2023-05-19T06:02:58.882Z,75.7567
2023-05-19T06:04:00.141Z,75.6570
2023-05-19T06:05:01.613Z,75.7566
2023-05-19T06:06:03.010Z,75.6079
2023-05-19T06:07:04.337Z,75.7205
2023-05-19T06:08:05.874Z,74.9309
2023-05-19T06:09:07.256Z,72.8748
2023-05-19T06:10:08.581Z,71.0429
2023-05-19T06:11:10.058Z,70.4923
2023-05-19T06:12:11.470Z,69.0423
2023-05-19T06:13:13.019Z,68.0137
2023-05-19T06:14:14.335Z,67.0060
2023-05-19T06:15:15.776Z,66.2714
2023-05-19T06:16:17.208Z,65.6289
2023-05-19T06:17:18.602Z,65.6715
2023-05-19T06:18:20.054Z,66.1066
2023-05-19T06:19:21.460Z,66.5321
2023-05-19T06:20:22.887Z,67.0353
2023-05-19T06:21:24.248Z,66.6121
2023-05-19T06:22:25.709Z,65.7012
2023-05-19T06:23:27.168Z,64.4899
2023-05-19T06:24:28.635Z,64.6544
2023-05-19T06:25:29.968Z,63.9091
2023-05-19T06:26:31.283Z,64.4125
2023-05-19T06:27:34.644Z,64.4050
2023-05-19T06:28:34.245Z,64.0060
2023-05-19T06:29:35.793Z,63.4087
2023-05-19T06:30:37.160Z,62.9657
2023-05-19T06:31:38.488Z,62.1811
2023-05-19T06:32:40.044Z,61.7355
2023-05-19T06:33:41.521Z,61.3897
2023-05-19T06:34:42.943Z,60.8698
2023-05-19T06:35:44.261Z,58.9019
2023-05-19T06:36:45.767Z,59.3331
2023-05-19T06:37:47.118Z,60.5937
2023-05-19T06:38:49.398Z,61.3853
2023-05-19T06:39:49.968Z,61.2685
2023-05-19T06:40:51.409Z,60.9215
2023-05-19T06:41:52.786Z,59.2059
2023-05-19T06:42:54.115Z,58.2596
2023-05-19T06:43:55.682Z,59.4295
2023-05-19T06:44:57.097Z,61.0240
2023-05-19T06:45:58.355Z,60.2207
2023-05-19T06:46:59.892Z,59.8672
2023-05-19T06:48:01.349Z,60.0111
2023-05-19T06:49:02.756Z,58.6938
2023-05-19T06:50:04.185Z,57.9010
2023-05-19T06:51:05.834Z,58.3991
2023-05-19T06:52:06.974Z,58.7955
2023-05-19T06:53:08.419Z,58.8246
2023-05-19T06:54:09.880Z,60.2438
2023-05-19T06:55:11.906Z,60.4794
2023-05-19T06:56:12.758Z,58.5570
2023-05-19T06:57:14.105Z,58.2835
2023-05-19T06:58:15.529Z,58.9458
2023-05-19T06:59:17.044Z,59.2813
2023-05-19T07:00:19.954Z,59.4293
2023-05-19T07:01:19.793Z,60.4320
2023-05-19T07:02:21.184Z,60.7059
2023-05-19T07:03:22.805Z,58.6519
2023-05-19T07:04:24.088Z,58.3426
2023-05-19T07:05:26.449Z,59.2468
2023-05-19T07:06:26.865Z,60.0974
2023-05-19T07:07:28.240Z,61.5216
2023-05-19T07:08:29.764Z,61.7541
2023-05-19T07:09:31.227Z,60.3252
2023-05-19T07:10:32.824Z,58.1964
2023-05-19T07:11:33.973Z,59.0101
2023-05-19T07:12:35.394Z,59.8155
2023-05-19T07:13:36.868Z,60.0904
2023-05-19T07:14:38.318Z,61.2233
2023-05-19T07:15:39.782Z,61.4894
2023-05-19T07:16:41.128Z,58.7630
2023-05-19T07:17:42.570Z,58.9152
2023-05-19T07:18:44.044Z,60.1675
2023-05-19T07:19:45.381Z,60.5649
2023-05-19T07:20:46.884Z,61.6880
2023-05-19T07:21:48.258Z,61.6043
2023-05-19T07:22:49.615Z,59.0633
2023-05-19T07:23:51.076Z,59.0400
2023-05-19T07:24:52.555Z,60.2883
2023-05-19T07:25:54.415Z,60.9002
2023-05-19T07:26:55.382Z,60.9062
2023-05-19T07:27:56.777Z,61.6466
2023-05-19T07:28:58.230Z,59.4646
2023-05-19T07:29:59.617Z,59.1755
2023-05-19T07:31:01.187Z,60.7178
2023-05-19T07:32:02.567Z,61.5265
2023-05-19T07:33:03.919Z,61.6753
2023-05-19T07:34:05.330Z,62.6380
2023-05-19T07:35:06.688Z,60.7833
2023-05-19T07:36:08.210Z,59.5943
2023-05-19T07:37:09.512Z,60.5175
2023-05-19T07:38:11.091Z,62.3609
2023-05-19T07:39:12.433Z,63.1253
2023-05-19T07:40:13.865Z,62.9445
2023-05-19T07:41:15.333Z,60.0607
2023-05-19T07:42:16.642Z,58.8608
2023-05-19T07:43:17.987Z,60.5480
2023-05-19T07:44:19.538Z,61.8627
2023-05-19T07:45:21.008Z,62.3600
2023-05-19T07:46:22.550Z,62.7188
